Time;durP1;ratioP1;P1;durP2;ratioP2;P2;SDS_P1;SDS_P2;PMS_P1;PMS_P2;Temp;Humidity;BMP_temperature;BMP_pressure;BME280_temperature;BME280_humidity;BME280_pressure;Samples;Min_cycle;Max_cycle;Signal;HPM_P1;HPM_P2
2023/01/19 00:00:53;;;;;;;;;57.50;49.00;;;;;;;;5312907;27;8769;-70
2023/01/19 00:03:24;;;;;;;;;48.40;45.00;;;;;;;;5312787;27;10257;-70
2023/01/19 00:05:55;;;;;;;;;36.80;35.20;;;;;;;;5312762;27;8754;-73
2023/01/19 00:08:26;;;;;;;;;58.50;48.75;;;;;;;;5331222;27;8792;-73
2023/01/19 00:10:57;;;;;;;;;32.75;31.50;;;;;;;;5312907;27;8766;-73
2023/01/19 00:13:28;;;;;;;;;41.25;39.25;;;;;;;;5312728;27;9673;-73
2023/01/19 00:15:59;;;;;;;;;14.60;14.60;;;;;;;;5331177;27;8813;-73
2023/01/19 00:18:30;;;;;;;;;15.00;14.00;;;;;;;;5278517;27;9472;-73
2023/01/19 00:21:20;;;;;;;;;30.40;30.40;;;;;;;;5298489;27;8808;-73
2023/01/19 00:23:51;;;;;;;;;28.20;28.20;;;;;;;;5295520;27;8766;-73
2023/01/19 00:26:22;;;;;;;;;22.40;22.40;;;;;;;;5275567;28;8842;-73
2023/01/19 00:28:53;;;;;;;;;22.40;17.60;;;;;;;;5270979;28;8762;-73
2023/01/19 00:31:43;;;;;;;;;12.40;12.40;;;;;;;;5292431;28;8762;-73
2023/01/19 00:34:14;;;;;;;;;14.40;14.20;;;;;;;;5294110;28;8746;-73
2023/01/19 00:36:45;;;;;;;;;13.00;12.80;;;;;;;;5313414;27;8834;-74
2023/01/19 00:39:16;;;;;;;;;12.25;11.50;;;;;;;;5310248;27;9423;-73
2023/01/19 00:44:58;;;;;;;;;6.80;5.60;;;;;;;;5255963;28;8798;-73
2023/01/19 00:47:31;;;;;;;;;18.20;16.80;;;;;;;;5277706;27;8826;-73
2023/01/19 00:50:02;;;;;;;;;14.20;14.20;;;;;;;;5276260;27;8758;-73
2023/01/19 00:52:33;;;;;;;;;27.40;25.40;;;;;;;;5275751;27;8786;-73
2023/01/19 00:55:05;;;;;;;;;25.50;24.50;;;;;;;;5295081;27;8839;-73
2023/01/19 00:57:37;;;;;;;;;35.80;31.20;;;;;;;;5312819;27;9492;-73
2023/01/19 01:00:10;;;;;;;;;27.80;27.80;;;;;;;;5330544;27;8761;-73
2023/01/19 01:02:42;;;;;;;;;23.20;22.00;;;;;;;;5312384;27;8817;-73
2023/01/19 01:05:13;;;;;;;;;24.40;24.00;;;;;;;;5295463;27;8795;-73
2023/01/19 01:07:44;;;;;;;;;20.20;20.20;;;;;;;;5312973;27;8783;-73
2023/01/19 01:10:23;;;;;;;;;10.80;10.60;;;;;;;;5329265;27;8772;-74
2023/01/19 01:12:54;;;;;;;;;25.40;25.40;;;;;;;;5311843;27;8831;-71
2023/01/19 01:15:26;;;;;;;;;24.60;22.80;;;;;;;;5334351;27;8788;-71
2023/01/19 01:17:57;;;;;;;;;14.60;13.40;;;;;;;;5334573;27;8892;-71
2023/01/19 01:20:29;;;;;;;;;16.00;15.00;;;;;;;;5316153;27;8918;-71
2023/01/19 01:23:00;;;;;;;;;13.00;13.00;;;;;;;;5334378;27;11381;-71
2023/01/19 01:25:32;;;;;;;;;10.00;9.00;;;;;;;;5282009;27;8788;-71
2023/01/19 01:28:07;;;;;;;;;9.40;9.40;;;;;;;;5316271;27;8928;-71
2023/01/19 01:30:39;;;;;;;;;9.60;9.20;;;;;;;;5298750;27;8824;-71
2023/01/19 01:33:29;;;;;;;;;9.00;9.00;;;;;;;;5315520;27;8768;-71
2023/01/19 01:36:00;;;;;;;;;18.25;17.00;;;;;;;;5316260;27;8811;-71
2023/01/19 01:38:31;;;;;;;;;16.40;15.80;;;;;;;;5316245;27;8890;-71
2023/01/19 01:41:02;;;;;;;;;21.20;20.00;;;;;;;;5298972;27;8902;-71
2023/01/19 01:43:56;;;;;;;;;13.00;13.00;;;;;;;;5315139;27;8879;-72
2023/01/19 01:46:29;;;;;;;;;20.80;20.60;;;;;;;;5298840;27;8768;-72
2023/01/19 01:49:03;;;;;;;;;15.40;15.40;;;;;;;;5333756;27;9503;-71
2023/01/19 01:51:50;;;;;;;;;16.20;16.20;;;;;;;;5333318;27;8790;-72
2023/01/19 01:54:26;;;;;;;;;10.80;10.80;;;;;;;;5281600;27;8859;-71
2023/01/19 01:56:59;;;;;;;;;12.20;11.60;;;;;;;;5334041;27;8785;-70
2023/01/19 01:59:37;;;;;;;;;7.00;7.00;;;;;;;;5298549;27;9532;-70
2023/01/19 02:05:03;;;;;;;;;9.40;9.40;;;;;;;;5315470;27;8846;-71
2023/01/19 02:13:37;;;;;;;;;9.60;9.60;;;;;;;;5332874;27;8778;-70
2023/01/19 02:16:09;;;;;;;;;7.40;7.40;;;;;;;;5314879;27;8867;-70
2023/01/19 02:18:40;;;;;;;;;11.60;10.80;;;;;;;;5314880;27;8766;-71
2023/01/19 02:21:11;;;;;;;;;7.80;7.80;;;;;;;;5315416;27;8846;-71
2023/01/19 02:23:44;;;;;;;;;7.80;7.80;;;;;;;;5298111;27;9460;-70
2023/01/19 02:26:41;;;;;;;;;4.00;4.00;;;;;;;;5332104;27;8904;-71
2023/01/19 02:29:15;;;;;;;;;3.80;3.80;;;;;;;;5308533;27;8777;-75
2023/01/19 02:31:46;;;;;;;;;11.20;11.20;;;;;;;;5311986;27;9451;-75
2023/01/19 02:34:18;;;;;;;;;13.00;13.00;;;;;;;;5290250;27;8780;-74
2023/01/19 02:37:05;;;;;;;;;20.20;20.20;;;;;;;;5297950;27;8793;-74
2023/01/19 02:39:42;;;;;;;;;12.40;12.40;;;;;;;;5333391;27;8758;-74
2023/01/19 02:42:26;;;;;;;;;11.20;11.20;;;;;;;;5330376;27;8760;-75
2023/01/19 02:44:57;;;;;;;;;9.00;7.00;;;;;;;;5293828;27;8756;-74
2023/01/19 02:47:36;;;;;;;;;5.50;5.50;;;;;;;;5297432;27;8809;-72
2023/01/19 02:50:26;;;;;;;;;6.00;6.00;;;;;;;;5332954;27;11511;-73
2023/01/19 02:53:04;;;;;;;;;15.80;15.80;;;;;;;;5314132;27;8804;-73
2023/01/19 02:55:36;;;;;;;;;9.60;9.40;;;;;;;;5314140;27;8782;-73
2023/01/19 02:58:30;;;;;;;;;15.40;15.40;;;;;;;;5297138;27;8808;-74
2023/01/19 03:01:16;;;;;;;;;25.00;25.00;;;;;;;;5300501;27;8764;-73
2023/01/19 03:04:23;;;;;;;;;11.20;11.20;;;;;;;;5331957;27;8778;-73
2023/01/19 03:07:00;;;;;;;;;13.00;12.80;;;;;;;;5314806;27;8791;-73
2023/01/19 03:09:31;;;;;;;;;14.80;14.80;;;;;;;;5313574;27;8784;-73
2023/01/19 03:12:14;;;;;;;;;12.75;12.75;;;;;;;;5313766;27;8783;-74
2023/01/19 03:15:09;;;;;;;;;19.20;19.20;;;;;;;;5313654;27;9482;-72
2023/01/19 03:17:41;;;;;;;;;15.40;13.80;;;;;;;;5314013;27;8809;-72
2023/01/19 03:20:15;;;;;;;;;18.00;17.00;;;;;;;;5331738;27;8775;-71
2023/01/19 03:22:48;;;;;;;;;18.40;17.20;;;;;;;;5296450;27;8851;-72
2023/01/19 03:25:21;;;;;;;;;18.00;16.00;;;;;;;;5296338;27;8803;-72
2023/01/19 03:27:53;;;;;;;;;30.20;27.40;;;;;;;;5313609;27;8784;-72
2023/01/19 03:30:46;;;;;;;;;22.80;22.80;;;;;;;;5313620;27;8787;-72
2023/01/19 03:33:37;;;;;;;;;30.00;29.20;;;;;;;;5332715;27;9529;-72
2023/01/19 03:36:12;;;;;;;;;34.20;34.20;;;;;;;;5312930;27;8943;-72
2023/01/19 03:38:45;;;;;;;;;40.20;39.60;;;;;;;;5296248;27;8798;-73
2023/01/19 03:41:18;;;;;;;;;53.40;48.40;;;;;;;;5313487;27;8796;-72
2023/01/19 03:43:50;;;;;;;;;21.40;21.40;;;;;;;;5332283;27;8811;-72
2023/01/19 03:46:40;;;;;;;;;40.00;37.60;;;;;;;;5298502;27;8798;-72
2023/01/19 03:49:30;;;;;;;;;42.60;40.60;;;;;;;;5308787;27;8835;-72
2023/01/19 03:52:01;;;;;;;;;46.00;43.60;;;;;;;;5292455;27;8830;-73
2023/01/19 03:54:51;;;;;;;;;48.20;44.00;;;;;;;;5292142;27;8780;-75
2023/01/19 03:57:21;;;;;;;;;56.75;49.50;;;;;;;;5291707;27;8814;-72
2023/01/19 04:00:11;;;;;;;;;45.00;42.60;;;;;;;;5310214;27;8759;-73
2023/01/19 04:03:02;;;;;;;;;42.60;41.60;;;;;;;;5295734;27;8799;-69
2023/01/19 04:05:51;;;;;;;;;33.20;31.20;;;;;;;;5294414;27;8767;-70
2023/01/19 04:08:40;;;;;;;;;30.80;29.00;;;;;;;;5308529;27;8909;-69
2023/01/19 04:11:12;;;;;;;;;33.80;33.00;;;;;;;;5292212;27;8855;-71
2023/01/19 04:13:43;;;;;;;;;35.40;32.80;;;;;;;;5309865;27;8778;-70
2023/01/19 04:16:18;;;;;;;;;35.40;35.40;;;;;;;;5292099;27;8799;-72
2023/01/19 04:18:52;;;;;;;;;33.40;32.40;;;;;;;;5292755;27;8778;-70
2023/01/19 04:21:22;;;;;;;;;38.00;36.20;;;;;;;;5308903;27;8802;-70
2023/01/19 04:23:54;;;;;;;;;33.20;33.00;;;;;;;;5291742;27;8763;-71
2023/01/19 04:26:25;;;;;;;;;35.40;33.60;;;;;;;;5308693;27;8907;-70
2023/01/19 04:28:56;;;;;;;;;30.20;30.20;;;;;;;;5292598;27;9597;-70
2023/01/19 04:31:31;;;;;;;;;16.60;15.40;;;;;;;;5308232;27;9556;-70
2023/01/19 04:34:03;;;;;;;;;25.00;24.40;;;;;;;;5290004;27;8783;-69
2023/01/19 04:36:34;;;;;;;;;30.00;25.50;;;;;;;;5276181;27;8803;-70
2023/01/19 04:39:23;;;;;;;;;25.80;25.00;;;;;;;;5294423;27;8763;-71
2023/01/19 04:41:59;;;;;;;;;21.50;21.50;;;;;;;;5310037;27;8778;-70
2023/01/19 04:44:36;;;;;;;;;30.80;30.80;;;;;;;;5292074;27;8786;-70
2023/01/19 04:47:10;;;;;;;;;29.80;28.00;;;;;;;;5293190;27;8811;-70
2023/01/19 04:49:43;;;;;;;;;29.00;28.00;;;;;;;;5275254;28;8793;-70
2023/01/19 04:52:34;;;;;;;;;31.80;31.80;;;;;;;;5309798;27;8774;-70
2023/01/19 04:55:24;;;;;;;;;28.40;28.20;;;;;;;;5317320;27;8916;-69
2023/01/19 04:58:14;;;;;;;;;30.40;28.00;;;;;;;;5316818;27;8812;-70
2023/01/19 05:01:08;;;;;;;;;22.40;22.40;;;;;;;;5317141;27;8856;-70
2023/01/19 05:03:39;;;;;;;;;27.60;27.60;;;;;;;;5299411;27;8826;-70
2023/01/19 05:06:10;;;;;;;;;15.40;15.40;;;;;;;;5299272;27;8801;-70
2023/01/19 05:08:41;;;;;;;;;40.50;40.25;;;;;;;;5316670;27;8765;-70
2023/01/19 05:11:12;;;;;;;;;28.50;27.00;;;;;;;;5315962;27;10483;-69
2023/01/19 05:14:01;;;;;;;;;25.40;24.40;;;;;;;;5334335;27;11010;-69
2023/01/19 05:16:33;;;;;;;;;20.60;20.60;;;;;;;;5297808;27;8831;-70
2023/01/19 05:19:04;;;;;;;;;12.20;9.00;;;;;;;;5288244;27;8788;-69
2023/01/19 05:21:35;;;;;;;;;22.00;22.00;;;;;;;;5316214;27;8777;-69
2023/01/19 05:28:30;;;;;;;;;24.00;23.60;;;;;;;;5334929;27;9121;-69
2023/01/19 05:31:01;;;;;;;;;27.00;26.20;;;;;;;;5334886;27;8765;-69
2023/01/19 05:33:32;;;;;;;;;24.60;24.40;;;;;;;;5350710;27;8769;-69
2023/01/19 05:36:03;;;;;;;;;23.20;23.20;;;;;;;;5325336;27;8807;-70
2023/01/19 05:38:34;;;;;;;;;14.00;12.60;;;;;;;;5311335;27;8777;-69
2023/01/19 05:41:05;;;;;;;;;18.75;17.25;;;;;;;;5314128;27;8846;-69
2023/01/19 05:43:35;;;;;;;;;21.50;20.50;;;;;;;;5334240;27;12217;-70
2023/01/19 05:46:07;;;;;;;;;16.40;16.40;;;;;;;;5315622;27;8797;-70
2023/01/19 05:48:38;;;;;;;;;12.40;12.20;;;;;;;;5315433;27;8809;-70
2023/01/19 06:00:10;;;;;;;;;15.60;14.60;;;;;;;;5312236;27;8740;-69
2023/01/19 06:07:05;;;;;;;;;27.00;27.00;;;;;;;;5312487;27;8704;-70
2023/01/19 06:09:55;;;;;;;;;22.60;19.80;;;;;;;;5280445;27;8752;-70
2023/01/19 06:12:27;;;;;;;;;27.60;25.60;;;;;;;;5260843;27;8798;-69
2023/01/19 06:14:57;;;;;;;;;24.40;23.80;;;;;;;;5312888;27;8910;-69
2023/01/19 06:17:30;;;;;;;;;30.00;30.00;;;;;;;;5276444;27;8808;-69
2023/01/19 06:20:19;;;;;;;;;29.60;27.80;;;;;;;;5312491;27;9768;-69
2023/01/19 06:22:50;;;;;;;;;39.80;36.40;;;;;;;;5311873;27;8816;-69
2023/01/19 06:25:21;;;;;;;;;29.75;29.00;;;;;;;;5312171;27;8759;-69
2023/01/19 06:27:52;;;;;;;;;43.60;40.80;;;;;;;;5293517;27;8926;-69
2023/01/19 06:30:23;;;;;;;;;24.60;24.60;;;;;;;;5276641;27;8783;-69
2023/01/19 06:32:54;;;;;;;;;54.20;47.60;;;;;;;;5293658;27;8775;-68
2023/01/19 06:35:25;;;;;;;;;47.00;43.50;;;;;;;;5276419;27;8775;-68
2023/01/19 06:37:56;;;;;;;;;38.60;36.80;;;;;;;;5311230;27;8814;-69
2023/01/19 06:40:27;;;;;;;;;49.00;45.25;;;;;;;;5293611;27;8752;-70
2023/01/19 06:42:58;;;;;;;;;60.50;52.00;;;;;;;;5266198;27;8772;-72
2023/01/19 06:45:30;;;;;;;;;53.50;48.25;;;;;;;;5301411;27;10307;-70
2023/01/19 06:48:04;;;;;;;;;46.20;45.00;;;;;;;;5310040;27;8819;-69
2023/01/19 06:50:35;;;;;;;;;57.60;48.40;;;;;;;;5301052;27;9519;-69
2023/01/19 06:53:06;;;;;;;;;54.20;48.40;;;;;;;;5314310;27;9329;-69
2023/01/19 06:56:00;;;;;;;;;33.80;33.80;;;;;;;;5299939;27;8806;-69
2023/01/19 06:58:31;;;;;;;;;40.20;38.80;;;;;;;;5332651;27;9493;-69
2023/01/19 07:01:02;;;;;;;;;28.20;28.20;;;;;;;;5314519;27;8784;-69
2023/01/19 07:03:34;;;;;;;;;27.60;27.60;;;;;;;;5297474;27;8764;-68
2023/01/19 07:06:08;;;;;;;;;39.00;37.60;;;;;;;;5314159;27;8768;-68
2023/01/19 07:08:39;;;;;;;;;28.80;27.80;;;;;;;;5313596;27;8749;-69
2023/01/19 07:11:11;;;;;;;;;19.00;19.00;;;;;;;;5313460;27;8792;-69
2023/01/19 07:13:43;;;;;;;;;24.20;23.60;;;;;;;;5313181;27;8823;-69
2023/01/19 07:16:14;;;;;;;;;26.20;24.20;;;;;;;;5313438;27;8975;-69
2023/01/19 07:19:03;;;;;;;;;7.40;7.00;;;;;;;;5332421;27;8776;-69
2023/01/19 07:21:34;;;;;;;;;18.60;17.40;;;;;;;;5313445;27;8840;-69
2023/01/19 07:24:05;;;;;;;;;27.25;27.25;;;;;;;;5313985;27;8783;-70
2023/01/19 07:26:36;;;;;;;;;21.25;21.25;;;;;;;;5296597;27;9016;-69
2023/01/19 07:29:07;;;;;;;;;21.80;21.80;;;;;;;;5313469;27;11422;-69
2023/01/19 07:31:38;;;;;;;;;18.00;15.00;;;;;;;;5313917;27;8768;-68
2023/01/19 07:34:09;;;;;;;;;28.80;27.40;;;;;;;;5331814;27;8802;-69
2023/01/19 07:36:40;;;;;;;;;33.50;33.00;;;;;;;;5296211;27;8875;-70
2023/01/19 07:39:12;;;;;;;;;38.40;38.20;;;;;;;;5296064;27;10341;-70
2023/01/19 07:41:43;;;;;;;;;28.25;28.25;;;;;;;;5295785;27;8768;-68
2023/01/19 07:44:14;;;;;;;;;26.00;26.00;;;;;;;;5313447;27;8764;-69
2023/01/19 07:46:45;;;;;;;;;29.20;26.60;;;;;;;;5331513;27;8780;-68
2023/01/19 07:49:16;;;;;;;;;24.60;24.40;;;;;;;;5331579;27;8796;-68
2023/01/19 07:51:47;;;;;;;;;29.00;26.25;;;;;;;;5296192;27;8776;-70
2023/01/19 07:54:19;;;;;;;;;31.20;30.20;;;;;;;;5296402;27;8848;-69
2023/01/19 07:57:08;;;;;;;;;27.00;27.00;;;;;;;;5331958;27;8799;-68
2023/01/19 07:59:39;;;;;;;;;32.00;32.00;;;;;;;;5331637;27;9491;-69
2023/01/19 08:02:10;;;;;;;;;30.25;30.25;;;;;;;;5295865;27;9462;-69
2023/01/19 08:04:42;;;;;;;;;33.60;33.40;;;;;;;;5331548;27;8784;-69
2023/01/19 08:07:13;;;;;;;;;42.00;40.40;;;;;;;;5330969;27;8808;-69
2023/01/19 08:09:44;;;;;;;;;44.25;42.75;;;;;;;;5312577;27;8764;-70
2023/01/19 08:12:16;;;;;;;;;52.75;46.50;;;;;;;;5331523;27;8818;-69
2023/01/19 08:14:47;;;;;;;;;37.80;35.00;;;;;;;;5278342;27;11462;-69
2023/01/19 08:17:18;;;;;;;;;50.50;48.00;;;;;;;;5312694;27;8803;-70
2023/01/19 08:19:49;;;;;;;;;37.00;34.60;;;;;;;;5312946;27;11436;-68
2023/01/19 08:22:20;;;;;;;;;39.20;38.80;;;;;;;;5296552;27;8822;-71
2023/01/19 08:24:51;;;;;;;;;74.75;63.25;;;;;;;;5330618;27;8788;-71
2023/01/19 08:27:22;;;;;;;;;30.50;30.50;;;;;;;;5296050;27;11614;-71
2023/01/19 08:29:53;;;;;;;;;32.00;31.50;;;;;;;;5313434;27;8768;-70
2023/01/19 08:32:24;;;;;;;;;37.00;36.80;;;;;;;;5279405;27;8760;-70
2023/01/19 08:35:14;;;;;;;;;34.20;33.20;;;;;;;;5298580;27;8760;-69
2023/01/19 08:37:45;;;;;;;;;29.60;29.60;;;;;;;;5312395;27;8804;-70
2023/01/19 08:40:17;;;;;;;;;30.25;29.75;;;;;;;;5296280;27;8784;-70
2023/01/19 08:42:47;;;;;;;;;53.00;44.60;;;;;;;;5312121;27;11388;-69
2023/01/19 08:45:18;;;;;;;;;37.00;35.75;;;;;;;;5331094;27;8764;-69
2023/01/19 08:47:49;;;;;;;;;40.00;31.00;;;;;;;;5312207;27;8856;-69
2023/01/19 08:50:21;;;;;;;;;36.00;36.00;;;;;;;;5330569;27;11438;-70
2023/01/19 08:52:55;;;;;;;;;28.80;28.80;;;;;;;;5312352;27;8795;-71
2023/01/19 08:55:27;;;;;;;;;34.00;32.40;;;;;;;;5295173;27;8776;-70
2023/01/19 08:57:58;;;;;;;;;36.00;32.00;;;;;;;;5277943;27;8848;-70
2023/01/19 09:00:32;;;;;;;;;38.60;37.00;;;;;;;;5295497;27;8765;-70
2023/01/19 09:03:03;;;;;;;;;33.60;33.60;;;;;;;;5312423;27;8768;-70
2023/01/19 09:05:53;;;;;;;;;49.00;45.40;;;;;;;;5298084;27;8763;-70
2023/01/19 09:08:24;;;;;;;;;27.50;27.25;;;;;;;;5312627;27;9463;-69
2023/01/19 09:10:55;;;;;;;;;33.50;27.75;;;;;;;;5312363;27;8783;-70
2023/01/19 09:13:26;;;;;;;;;18.00;18.00;;;;;;;;5330551;27;8760;-70
2023/01/19 09:15:57;;;;;;;;;23.80;23.40;;;;;;;;5330614;27;8779;-71
2023/01/19 09:18:29;;;;;;;;;22.80;21.60;;;;;;;;5295297;27;8749;-70
2023/01/19 09:21:26;;;;;;;;;28.60;26.80;;;;;;;;5300162;27;9466;-70
2023/01/19 09:23:57;;;;;;;;;34.60;33.00;;;;;;;;5278321;27;8764;-70
2023/01/19 09:26:30;;;;;;;;;24.60;24.60;;;;;;;;5295226;27;8915;-70
2023/01/19 09:29:01;;;;;;;;;24.20;24.20;;;;;;;;5294931;27;8780;-70
2023/01/19 09:31:34;;;;;;;;;30.00;28.80;;;;;;;;5295248;27;9587;-70
2023/01/19 09:34:05;;;;;;;;;19.25;19.25;;;;;;;;5329429;27;8894;-70
2023/01/19 09:36:38;;;;;;;;;26.60;23.60;;;;;;;;5334385;27;8842;-70
2023/01/19 09:39:09;;;;;;;;;31.00;30.80;;;;;;;;5315607;27;8872;-69
2023/01/19 09:41:43;;;;;;;;;29.80;28.80;;;;;;;;5298872;27;8796;-69
2023/01/19 09:44:33;;;;;;;;;23.20;21.80;;;;;;;;5334258;27;8773;-69
2023/01/19 09:47:26;;;;;;;;;39.40;39.20;;;;;;;;5333643;27;8764;-69
2023/01/19 09:50:00;;;;;;;;;20.20;18.80;;;;;;;;5315888;27;8792;-69
2023/01/19 09:52:37;;;;;;;;;9.20;9.20;;;;;;;;5332685;27;8906;-69
2023/01/19 09:55:18;;;;;;;;;16.40;16.40;;;;;;;;5316023;27;8850;-69
2023/01/19 09:58:11;;;;;;;;;23.40;23.40;;;;;;;;5300986;27;8926;-70
2023/01/19 10:00:46;;;;;;;;;12.80;11.80;;;;;;;;5315552;27;8779;-71
2023/01/19 10:03:19;;;;;;;;;16.40;16.00;;;;;;;;5334364;27;8787;-69
2023/01/19 10:06:10;;;;;;;;;23.20;22.40;;;;;;;;5301857;27;8777;-69
2023/01/19 10:08:56;;;;;;;;;14.60;14.60;;;;;;;;5297859;27;8768;-70
2023/01/19 10:11:30;;;;;;;;;15.20;15.20;;;;;;;;5298868;27;9533;-70
2023/01/19 10:14:12;;;;;;;;;9.60;9.60;;;;;;;;5298832;27;9644;-71
2023/01/19 10:17:04;;;;;;;;;15.00;15.00;;;;;;;;5298165;27;8796;-70
2023/01/19 10:19:37;;;;;;;;;27.80;27.80;;;;;;;;5333157;27;8784;-70
2023/01/19 10:22:27;;;;;;;;;33.80;33.40;;;;;;;;5315196;27;9568;-70
2023/01/19 10:25:00;;;;;;;;;52.20;47.40;;;;;;;;5298453;27;8834;-70
2023/01/19 10:27:33;;;;;;;;;40.00;38.60;;;;;;;;5314836;27;8771;-69
2023/01/19 10:30:06;;;;;;;;;34.00;34.00;;;;;;;;5315392;27;8784;-70
2023/01/19 10:32:37;;;;;;;;;15.60;15.60;;;;;;;;5333433;27;8793;-70
2023/01/19 10:35:25;;;;;;;;;14.60;14.60;;;;;;;;5333411;27;8797;-71
2023/01/19 10:37:59;;;;;;;;;7.40;7.40;;;;;;;;5333228;27;8930;-70
2023/01/19 10:40:30;;;;;;;;;9.40;9.40;;;;;;;;5297531;27;8958;-70
2023/01/19 10:43:39;;;;;;;;;12.20;12.20;;;;;;;;5315157;27;8774;-70
2023/01/19 10:46:37;;;;;;;;;10.80;10.20;;;;;;;;5313191;27;8777;-70
2023/01/19 10:49:21;;;;;;;;;8.60;8.20;;;;;;;;5297390;27;8812;-70
2023/01/19 10:52:25;;;;;;;;;11.60;11.60;;;;;;;;5300025;27;8950;-70
2023/01/19 10:54:58;;;;;;;;;12.00;12.00;;;;;;;;5314719;27;8883;-70
2023/01/19 10:57:31;;;;;;;;;7.00;7.00;;;;;;;;5314561;27;8788;-69
2023/01/19 11:00:03;;;;;;;;;10.00;10.00;;;;;;;;5332571;27;8768;-69
2023/01/19 11:02:34;;;;;;;;;13.60;13.60;;;;;;;;5313838;27;8808;-70
2023/01/19 11:05:40;;;;;;;;;8.00;8.00;;;;;;;;5333916;27;8760;-70
2023/01/19 11:08:22;;;;;;;;;9.00;9.00;;;;;;;;5237778;27;8776;-71
2023/01/19 11:10:58;;;;;;;;;12.00;12.00;;;;;;;;5332850;27;9585;-71
2023/01/19 11:13:29;;;;;;;;;9.00;9.00;;;;;;;;5314708;27;8768;-70
2023/01/19 11:16:03;;;;;;;;;12.80;12.80;;;;;;;;5280351;27;8796;-69
2023/01/19 11:18:35;;;;;;;;;10.20;10.20;;;;;;;;5314269;27;8856;-70
2023/01/19 11:21:08;;;;;;;;;12.00;12.00;;;;;;;;5297575;27;8768;-70
2023/01/19 11:23:49;;;;;;;;;10.00;9.80;;;;;;;;5297547;27;8795;-70
2023/01/19 11:26:25;;;;;;;;;14.60;14.60;;;;;;;;5297318;27;8804;-70
2023/01/19 11:28:57;;;;;;;;;11.20;11.20;;;;;;;;5297935;27;8760;-70
2023/01/19 11:31:28;;;;;;;;;15.20;15.00;;;;;;;;5333560;27;8792;-69
2023/01/19 11:34:01;;;;;;;;;15.75;15.75;;;;;;;;5332716;27;9442;-69
2023/01/19 11:36:34;;;;;;;;;13.00;13.00;;;;;;;;5313943;27;8909;-70
2023/01/19 11:39:11;;;;;;;;;10.60;10.60;;;;;;;;5313966;27;8900;-70
2023/01/19 11:41:42;;;;;;;;;12.60;12.60;;;;;;;;5313705;27;8770;-70
2023/01/19 11:44:25;;;;;;;;;19.00;18.80;;;;;;;;5313556;27;8788;-70
2023/01/19 11:46:58;;;;;;;;;34.40;34.20;;;;;;;;5296792;27;8772;-71
2023/01/19 11:49:32;;;;;;;;;35.00;33.80;;;;;;;;5331794;27;8812;-70
2023/01/19 11:52:05;;;;;;;;;37.80;36.20;;;;;;;;5296233;27;8821;-70
2023/01/19 11:54:41;;;;;;;;;76.80;63.40;;;;;;;;5313461;27;8764;-70
2023/01/19 11:57:15;;;;;;;;;38.80;37.60;;;;;;;;5295694;27;8780;-70
2023/01/19 11:59:47;;;;;;;;;38.00;36.40;;;;;;;;5313346;27;8780;-71
2023/01/19 12:02:25;;;;;;;;;15.60;15.60;;;;;;;;5296034;27;8768;-69
2023/01/19 12:04:59;;;;;;;;;12.80;12.60;;;;;;;;5331545;27;8785;-69
2023/01/19 12:07:49;;;;;;;;;11.40;10.60;;;;;;;;5313112;27;8768;-69
2023/01/19 12:10:24;;;;;;;;;12.00;12.00;;;;;;;;5296043;27;8780;-69
2023/01/19 12:12:55;;;;;;;;;11.80;11.00;;;;;;;;5331420;27;8844;-68
2023/01/19 12:15:41;;;;;;;;;14.20;14.20;;;;;;;;5331206;27;8806;-69
2023/01/19 12:18:40;;;;;;;;;16.80;16.80;;;;;;;;5316832;27;8800;-68
2023/01/19 12:21:11;;;;;;;;;35.20;34.60;;;;;;;;5296823;27;8804;-69
2023/01/19 12:28:08;;;;;;;;;45.40;43.20;;;;;;;;5331405;27;11380;-72
2023/01/19 12:30:44;;;;;;;;;59.20;51.60;;;;;;;;5331021;27;8772;-70
2023/01/19 12:33:22;;;;;;;;;60.20;52.40;;;;;;;;5313492;27;8753;-68
2023/01/19 12:35:59;;;;;;;;;40.60;40.40;;;;;;;;5279650;27;8783;-68
2023/01/19 12:38:36;;;;;;;;;38.20;36.60;;;;;;;;5331591;27;8818;-69
2023/01/19 12:49:30;;;;;;;;;34.60;34.60;;;;;;;;5313554;27;8828;-68
2023/01/19 12:52:19;;;;;;;;;50.60;44.80;;;;;;;;5330556;27;8791;-69
2023/01/19 12:55:09;;;;;;;;;33.00;32.00;;;;;;;;5300091;27;8803;-68
2023/01/19 12:58:01;;;;;;;;;39.40;36.40;;;;;;;;5306265;27;8852;-69
2023/01/19 13:00:34;;;;;;;;;29.60;29.60;;;;;;;;5320668;27;8767;-70
2023/01/19 13:03:15;;;;;;;;;36.80;36.40;;;;;;;;5297194;27;8794;-69
2023/01/19 13:05:47;;;;;;;;;35.60;32.40;;;;;;;;5297244;27;8907;-68
2023/01/19 13:08:19;;;;;;;;;42.20;38.60;;;;;;;;5295657;27;8784;-68
2023/01/19 13:10:59;;;;;;;;;38.20;32.60;;;;;;;;5314659;27;8772;-69
2023/01/19 13:13:31;;;;;;;;;38.60;36.00;;;;;;;;5316106;27;8772;-74
2023/01/19 13:16:18;;;;;;;;;119.50;95.50;;;;;;;;5299212;27;8795;-70
2023/01/19 13:27:39;;;;;;;;;34.80;32.20;;;;;;;;5334352;27;8720;-69
2023/01/19 13:30:14;;;;;;;;;41.80;37.40;;;;;;;;5316573;27;8768;-68
2023/01/19 13:32:45;;;;;;;;;40.60;39.60;;;;;;;;5315970;27;8802;-66
2023/01/19 13:35:18;;;;;;;;;29.80;27.60;;;;;;;;5281709;27;8780;-67
2023/01/19 13:37:49;;;;;;;;;23.40;23.40;;;;;;;;5298273;27;8815;-67
2023/01/19 13:40:39;;;;;;;;;19.60;19.20;;;;;;;;5334183;27;8821;-68
2023/01/19 13:43:16;;;;;;;;;20.00;20.00;;;;;;;;5315662;27;8772;-68
2023/01/19 13:45:48;;;;;;;;;24.20;24.20;;;;;;;;5316374;27;8764;-68
2023/01/19 13:48:23;;;;;;;;;14.80;14.80;;;;;;;;5315531;27;8841;-68
2023/01/19 13:50:55;;;;;;;;;22.20;21.60;;;;;;;;5281676;27;8786;-68
2023/01/19 13:53:26;;;;;;;;;21.20;19.80;;;;;;;;5315464;27;8788;-68
2023/01/19 13:56:06;;;;;;;;;22.00;22.00;;;;;;;;5298538;27;8808;-67
2023/01/19 13:58:38;;;;;;;;;29.20;27.40;;;;;;;;5298398;27;9604;-68
2023/01/19 14:01:27;;;;;;;;;32.20;30.40;;;;;;;;5333829;27;8779;-67
2023/01/19 14:03:58;;;;;;;;;35.00;34.50;;;;;;;;5314773;27;8776;-69
2023/01/19 14:06:31;;;;;;;;;57.00;49.00;;;;;;;;5333650;27;8764;-68
2023/01/19 14:09:15;;;;;;;;;48.60;45.60;;;;;;;;5333786;27;8788;-68
2023/01/19 14:12:02;;;;;;;;;67.00;57.25;;;;;;;;5299546;27;8776;-69
2023/01/19 14:14:33;;;;;;;;;67.50;57.50;;;;;;;;5315926;27;8788;-68
2023/01/19 14:17:24;;;;;;;;;64.50;53.00;;;;;;;;5301296;27;8879;-68
2023/01/19 14:19:56;;;;;;;;;58.00;52.25;;;;;;;;5314742;27;8902;-68
2023/01/19 14:22:41;;;;;;;;;45.80;42.20;;;;;;;;5332301;27;8906;-68
2023/01/19 14:25:31;;;;;;;;;36.00;35.20;;;;;;;;5318210;27;8811;-68
2023/01/19 14:28:21;;;;;;;;;15.60;15.60;;;;;;;;5333678;27;8806;-68
2023/01/19 14:31:03;;;;;;;;;27.00;26.20;;;;;;;;5315292;27;8752;-68
2023/01/19 14:33:57;;;;;;;;;30.60;26.00;;;;;;;;5315056;27;9450;-68
2023/01/19 14:36:38;;;;;;;;;43.80;40.40;;;;;;;;5297774;27;8788;-68
2023/01/19 14:39:16;;;;;;;;;39.40;36.80;;;;;;;;5298082;27;8760;-68
2023/01/19 14:41:48;;;;;;;;;32.80;32.60;;;;;;;;5314579;27;8844;-68
2023/01/19 14:44:31;;;;;;;;;26.40;26.20;;;;;;;;5314183;27;8890;-68
2023/01/19 14:47:03;;;;;;;;;24.60;23.40;;;;;;;;5315081;27;9582;-68
2023/01/19 14:49:38;;;;;;;;;28.80;25.40;;;;;;;;5311055;27;8807;-69
2023/01/19 14:52:36;;;;;;;;;26.20;22.80;;;;;;;;5294549;27;8893;-69
2023/01/19 14:55:15;;;;;;;;;19.60;19.00;;;;;;;;5310695;27;8806;-68
2023/01/19 14:57:46;;;;;;;;;25.40;25.40;;;;;;;;5311065;27;8807;-68
2023/01/19 15:00:19;;;;;;;;;32.40;32.40;;;;;;;;5310139;27;8775;-70
2023/01/19 15:02:50;;;;;;;;;32.60;30.60;;;;;;;;5292801;27;8798;-69
2023/01/19 15:05:40;;;;;;;;;27.60;27.60;;;;;;;;5295326;27;8772;-68
2023/01/19 15:08:16;;;;;;;;;36.60;35.20;;;;;;;;5292458;27;8787;-68
2023/01/19 15:10:47;;;;;;;;;24.00;24.00;;;;;;;;5310367;27;8832;-70
2023/01/19 15:22:16;;;;;;;;;20.20;18.40;;;;;;;;5311032;27;8712;-68
2023/01/19 15:24:48;;;;;;;;;27.75;27.25;;;;;;;;5292562;27;8771;-69
2023/01/19 15:27:20;;;;;;;;;20.60;19.80;;;;;;;;5309287;27;10250;-67
2023/01/19 15:29:51;;;;;;;;;53.25;47.00;;;;;;;;5311416;27;8799;-69
2023/01/19 15:32:22;;;;;;;;;25.00;21.25;;;;;;;;5310970;27;8868;-67
2023/01/19 15:34:53;;;;;;;;;27.25;27.25;;;;;;;;5310502;27;11411;-68
2023/01/19 15:37:24;;;;;;;;;21.40;21.40;;;;;;;;5292078;27;11533;-69
2023/01/19 15:39:55;;;;;;;;;1.40;1.40;;;;;;;;5309592;27;8843;-68
2023/01/19 15:42:26;;;;;;;;;18.00;15.25;;;;;;;;5292591;27;8795;-67
2023/01/19 15:44:57;;;;;;;;;13.80;13.80;;;;;;;;5291994;27;8764;-67
2023/01/19 15:47:28;;;;;;;;;10.50;10.50;;;;;;;;5311775;27;8802;-68
2023/01/19 15:49:59;;;;;;;;;13.00;13.00;;;;;;;;5313242;27;11410;-69
2023/01/19 15:57:01;;;;;;;;;11.40;11.40;;;;;;;;5331640;27;8878;-67
2023/01/19 15:59:50;;;;;;;;;14.00;13.20;;;;;;;;5331679;27;8813;-68
2023/01/19 16:02:21;;;;;;;;;12.00;12.00;;;;;;;;5295962;27;8788;-69
2023/01/19 16:04:52;;;;;;;;;14.50;13.00;;;;;;;;5312927;27;8835;-69
2023/01/19 16:07:23;;;;;;;;;12.75;12.00;;;;;;;;5279193;27;8792;-68
2023/01/19 16:09:54;;;;;;;;;12.00;12.00;;;;;;;;5296077;27;9793;-68
2023/01/19 16:12:25;;;;;;;;;9.40;9.40;;;;;;;;5296204;27;8799;-68
2023/01/19 16:14:56;;;;;;;;;9.25;9.25;;;;;;;;5331754;27;8775;-68
2023/01/19 16:17:27;;;;;;;;;10.50;10.50;;;;;;;;5313183;27;8803;-67
2023/01/19 16:19:58;;;;;;;;;12.00;12.00;;;;;;;;5312855;27;8915;-68
2023/01/19 16:22:29;;;;;;;;;11.50;11.50;;;;;;;;5295669;27;8759;-69
2023/01/19 16:25:00;;;;;;;;;16.20;16.20;;;;;;;;5312699;27;8764;-69
2023/01/19 16:27:49;;;;;;;;;15.20;12.20;;;;;;;;5313673;27;8764;-68